Time;durP1;ratioP1;P1;durP2;ratioP2;P2;SDS_P1;SDS_P2;PMS_P1;PMS_P2;Temp;Humidity;BMP_temperature;BMP_pressure;BME280_temperature;BME280_humidity;BME280_pressure;Samples;Min_cycle;Max_cycle;Signal;HPM_P1;HPM_P2
2022/06/12 00:00:16;;;;;;;6.88;2.45;;;12.10;99.90;;;;;;5070215;28;20051;-70
2022/06/12 00:02:43;;;;;;;4.07;1.90;;;12.10;99.90;;;;;;5093195;28;20085;-70
2022/06/12 00:05:10;;;;;;;8.95;2.10;;;12.10;99.90;;;;;;5088883;28;20043;-70
2022/06/12 00:07:36;;;;;;;8.23;2.65;;;12.00;99.90;;;;;;5088418;28;20036;-70
2022/06/12 00:10:03;;;;;;;9.70;2.67;;;12.10;99.90;;;;;;5094803;28;20127;-70
2022/06/12 00:12:29;;;;;;;11.75;1.90;;;12.10;99.90;;;;;;5099902;28;20754;-70
2022/06/12 00:14:55;;;;;;;7.40;2.58;;;12.00;99.90;;;;;;5095934;28;20097;-70
2022/06/12 00:17:21;;;;;;;6.57;2.42;;;12.00;99.90;;;;;;5095999;28;20043;-70
2022/06/12 00:19:49;;;;;;;8.32;2.70;;;12.00;99.90;;;;;;5096336;28;20039;-70
2022/06/12 00:22:15;;;;;;;10.57;2.70;;;11.90;99.90;;;;;;5095482;28;20123;-70
2022/06/12 00:24:41;;;;;;;8.65;2.50;;;12.00;99.90;;;;;;5095005;28;20109;-70
2022/06/12 00:27:07;;;;;;;7.30;1.88;;;12.00;99.90;;;;;;5098549;28;20670;-70
2022/06/12 00:29:36;;;;;;;6.88;2.15;;;11.90;99.90;;;;;;5092780;28;20059;-70
2022/06/12 00:32:04;;;;;;;10.00;2.40;;;11.90;99.90;;;;;;5095251;28;20046;-70
2022/06/12 00:34:35;;;;;;;5.97;2.15;;;11.90;99.90;;;;;;5081125;28;20048;-70
2022/06/12 00:37:01;;;;;;;6.70;1.92;;;11.90;99.90;;;;;;5098805;28;20032;-70
2022/06/12 00:39:29;;;;;;;11.15;2.75;;;11.80;99.90;;;;;;5108096;27;20042;-70
2022/06/12 00:41:56;;;;;;;8.25;2.22;;;11.70;99.90;;;;;;5078659;28;20039;-70
2022/06/12 00:44:26;;;;;;;9.60;2.65;;;11.80;99.90;;;;;;5097181;28;20440;-70
2022/06/12 00:47:01;;;;;;;8.77;2.30;;;11.70;99.90;;;;;;5105499;27;20051;-70
2022/06/12 00:49:53;;;;;;;7.07;2.10;;;11.70;99.90;;;;;;5096301;28;20447;-70
2022/06/12 00:52:45;;;;;;;11.15;2.50;;;11.70;99.90;;;;;;5090641;28;20043;-70
2022/06/12 00:55:24;;;;;;;6.43;2.60;;;11.70;99.90;;;;;;5076267;28;20044;-70
2022/06/12 00:57:57;;;;;;;8.93;2.15;;;11.70;99.90;;;;;;5092307;28;20521;-70
2022/06/12 01:00:22;;;;;;;7.80;2.08;;;11.70;99.90;;;;;;5092173;28;20621;-70
2022/06/12 01:02:49;;;;;;;6.40;2.50;;;11.70;99.90;;;;;;5108975;27;20075;-70
2022/06/12 01:08:06;;;;;;;6.97;1.90;;;11.70;99.90;;;;;;5093506;28;20097;-70
2022/06/12 01:10:35;;;;;;;11.43;2.45;;;11.60;99.90;;;;;;5088495;28;20048;-70
2022/06/12 01:13:11;;;;;;;6.03;1.70;;;11.70;99.90;;;;;;5097205;28;20461;-70
2022/06/12 01:15:39;;;;;;;;;;;11.70;99.90;;;;;;5066027;28;20351;-70
2022/06/12 01:18:09;;;;;;;7.68;2.15;;;11.70;99.90;;;;;;5070596;28;20401;-70
2022/06/12 01:20:43;;;;;;;5.03;1.95;;;11.80;99.90;;;;;;5100462;28;20039;-70
2022/06/12 01:23:50;;;;;;;11.48;3.60;;;11.80;99.90;;;;;;5077714;28;20036;-70
2022/06/12 01:26:47;;;;;;;8.10;2.67;;;11.70;99.90;;;;;;5109566;27;20541;-70
2022/06/12 01:29:33;;;;;;;7.25;2.47;;;11.70;99.90;;;;;;5080057;28;20075;-70
2022/06/12 01:32:12;;;;;;;5.13;2.03;;;11.70;99.90;;;;;;5074068;28;20040;-70
2022/06/12 01:34:59;;;;;;;4.75;2.10;;;11.60;99.90;;;;;;5109168;27;20051;-70
2022/06/12 01:37:46;;;;;;;9.27;2.22;;;11.60;99.90;;;;;;5107172;27;20039;-70
2022/06/12 01:40:35;;;;;;;3.72;1.50;;;11.60;99.90;;;;;;5054826;28;20043;-70
2022/06/12 01:43:15;;;;;;;10.90;2.22;;;11.60;99.90;;;;;;5072870;28;20069;-70
2022/06/12 01:46:01;;;;;;;8.45;2.10;;;11.60;99.90;;;;;;5105893;27;20051;-70
2022/06/12 01:48:45;;;;;;;6.90;1.67;;;11.60;99.90;;;;;;5076363;28;20058;-70
2022/06/12 01:51:38;;;;;;;8.52;1.73;;;11.60;99.90;;;;;;5089114;28;20394;-70
2022/06/12 01:54:13;;;;;;;6.30;2.08;;;11.50;99.90;;;;;;5090195;28;20059;-69
2022/06/12 01:56:41;;;;;;;5.53;1.70;;;11.60;99.90;;;;;;5075884;28;20157;-70
2022/06/12 01:59:18;;;;;;;4.43;1.50;;;11.50;99.90;;;;;;5094783;28;20044;-70
2022/06/12 02:02:03;;;;;;;8.43;1.92;;;11.50;99.90;;;;;;5075547;28;20044;-70
2022/06/12 02:04:39;;;;;;;7.10;2.33;;;11.50;99.90;;;;;;5091151;28;20059;-70
2022/06/12 02:07:14;;;;;;;9.25;3.33;;;11.50;99.90;;;;;;5073071;28;20052;-70
2022/06/12 02:09:46;;;;;;;5.70;1.98;;;11.50;99.90;;;;;;5077554;28;20131;-70
2022/06/12 02:15:15;;;;;;;10.07;2.05;;;11.50;99.90;;;;;;5074500;28;20044;-70
2022/06/12 02:17:48;;;;;;;5.85;1.70;;;11.50;99.90;;;;;;5108388;27;20101;-70
2022/06/12 02:20:18;;;;;;;4.07;1.70;;;11.50;99.90;;;;;;5110166;27;20131;-70
2022/06/12 02:22:46;;;;;;;8.48;2.33;;;11.50;99.90;;;;;;5070802;28;20044;-70
2022/06/12 02:25:26;;;;;;;8.10;1.80;;;11.50;99.90;;;;;;5073431;28;20078;-70
2022/06/12 02:28:04;;;;;;;7.18;1.65;;;11.60;99.90;;;;;;5095563;28;20050;-70
2022/06/12 02:30:34;;;;;;;9.60;1.65;;;11.60;99.90;;;;;;5094478;28;20044;-70
2022/06/12 02:33:07;;;;;;;7.88;1.75;;;11.60;99.90;;;;;;5073726;28;20048;-70
2022/06/12 02:35:42;;;;;;;8.50;2.03;;;11.60;99.90;;;;;;5088134;28;20036;-70
2022/06/12 02:38:20;;;;;;;8.45;2.05;;;11.60;99.90;;;;;;5077491;28;20127;-70
2022/06/12 02:40:52;;;;;;;7.82;2.20;;;11.70;99.90;;;;;;5078653;28;20081;-70
2022/06/12 02:43:23;;;;;;;6.90;1.40;;;11.70;99.90;;;;;;5072409;28;20492;-70
2022/06/12 02:45:54;;;;;;;6.70;2.30;;;11.60;99.90;;;;;;5073069;28;20036;-70
2022/06/12 02:48:20;;;;;;;8.38;1.48;;;11.70;99.90;;;;;;5074420;28;20051;-70
2022/06/12 02:51:18;;;;;;;6.47;1.50;;;11.70;99.90;;;;;;5092803;28;20043;-70
2022/06/12 02:54:09;;;;;;;6.30;1.45;;;11.70;99.90;;;;;;5082957;28;20056;-70
2022/06/12 02:57:08;;;;;;;3.50;1.27;;;11.70;99.90;;;;;;5060687;28;21410;-70
2022/06/12 02:59:51;;;;;;;7.47;2.00;;;11.60;99.90;;;;;;5093735;28;20058;-70
2022/06/12 03:02:33;;;;;;;6.93;1.65;;;11.50;99.90;;;;;;5094696;28;20086;-70
2022/06/12 03:05:01;;;;;;;6.22;1.63;;;11.50;99.90;;;;;;5089294;28;20372;-70
2022/06/12 03:07:29;;;;;;;5.00;1.15;;;11.60;99.90;;;;;;5102829;28;20032;-70
2022/06/12 03:09:58;;;;;;;2.42;1.15;;;11.60;99.90;;;;;;5076562;28;20036;-70
2022/06/12 03:12:28;;;;;;;9.50;1.42;;;11.60;99.90;;;;;;5062056;28;20086;-70
2022/06/12 03:14:55;;;;;;;7.50;1.73;;;11.60;99.90;;;;;;5072453;28;20069;-70
2022/06/12 03:17:21;;;;;;;7.75;1.48;;;11.60;99.90;;;;;;5089893;28;20040;-70
2022/06/12 03:19:53;;;;;;;5.72;2.00;;;11.70;99.90;;;;;;5092466;28;20028;-70
2022/06/12 03:22:48;;;;;;;6.93;2.25;;;11.70;99.90;;;;;;5088316;28;20390;-70
2022/06/12 03:25:27;;;;;;;6.95;1.52;;;11.70;99.90;;;;;;5069623;28;20080;-70
2022/06/12 03:28:02;;;;;;;6.72;1.80;;;11.60;99.90;;;;;;5096030;28;20090;-70
2022/06/12 03:30:49;;;;;;;9.23;2.43;;;11.60;99.90;;;;;;5075999;28;20044;-70
2022/06/12 03:33:23;;;;;;;7.13;1.70;;;11.70;99.90;;;;;;5093853;28;20384;-70
2022/06/12 03:36:09;;;;;;;5.15;1.60;;;11.70;99.90;;;;;;5071718;28;20600;-70
2022/06/12 03:38:43;;;;;;;10.40;1.80;;;11.70;99.90;;;;;;5074716;28;20032;-70
2022/06/12 03:41:32;;;;;;;7.15;1.63;;;11.80;99.90;;;;;;5077688;28;20040;-70
2022/06/12 03:44:22;;;;;;;4.90;1.50;;;11.90;99.90;;;;;;5116083;27;20440;-70
2022/06/12 03:46:59;;;;;;;7.25;1.45;;;12.00;99.90;;;;;;5076559;28;21923;-69
2022/06/12 03:49:45;;;;;;;6.75;1.77;;;12.00;99.90;;;;;;5095651;28;20367;-70
2022/06/12 03:52:25;;;;;;;10.77;2.15;;;12.10;99.90;;;;;;5080827;28;20050;-70
2022/06/12 03:54:56;;;;;;;11.50;2.38;;;12.20;99.90;;;;;;5073582;28;20047;-70
2022/06/12 03:57:56;;;;;;;7.95;1.75;;;12.20;99.90;;;;;;5076099;28;20032;-70
2022/06/12 04:00:38;;;;;;;7.72;2.30;;;12.40;99.90;;;;;;5055699;28;20052;-70
2022/06/12 04:03:09;;;;;;;10.85;1.70;;;12.40;99.90;;;;;;5095886;28;20047;-70
2022/06/12 04:05:47;;;;;;;8.95;1.80;;;12.60;99.90;;;;;;5072299;28;20052;-70
2022/06/12 04:08:20;;;;;;;6.38;1.60;;;12.90;99.90;;;;;;5104794;27;20089;-70
2022/06/12 04:10:48;;;;;;;7.90;2.00;;;13.10;99.90;;;;;;5098249;28;20036;-70
2022/06/12 04:13:15;;;;;;;7.72;2.03;;;13.30;99.90;;;;;;5109747;27;20050;-70
2022/06/12 04:15:54;;;;;;;10.85;3.17;;;13.40;99.90;;;;;;5074252;28;20035;-70
2022/06/12 04:18:20;;;;;;;6.40;1.90;;;13.50;99.90;;;;;;5063874;28;20043;-70
2022/06/12 04:21:01;;;;;;;5.93;1.60;;;13.70;99.90;;;;;;5075364;28;20068;-70
2022/06/12 04:23:42;;;;;;;6.93;1.80;;;13.90;99.90;;;;;;5090952;28;20047;-70
2022/06/12 04:26:20;;;;;;;6.40;1.30;;;14.00;99.90;;;;;;5091191;28;20063;-70
2022/06/12 04:28:53;;;;;;;6.95;1.70;;;14.40;99.90;;;;;;5111077;27;20043;-70
2022/06/12 04:31:20;;;;;;;6.40;2.00;;;15.00;99.90;;;;;;5064428;28;20090;-70
2022/06/12 04:34:09;;;;;;;8.70;1.88;;;16.00;99.90;;;;;;5095645;28;20043;-70
2022/06/12 04:36:35;;;;;;;4.95;1.00;;;17.10;99.90;;;;;;5092007;28;20504;-70
2022/06/12 04:39:02;;;;;;;8.45;1.80;;;18.30;99.90;;;;;;5093545;28;20036;-70
2022/06/12 04:41:31;;;;;;;6.82;1.38;;;19.10;99.90;;;;;;5081519;28;20039;-70
2022/06/12 04:43:57;;;;;;;6.68;1.40;;;20.00;99.90;;;;;;5094997;28;20059;-70
2022/06/12 04:46:24;;;;;;;8.07;1.58;;;20.70;99.90;;;;;;5078214;28;20048;-70
2022/06/12 04:48:53;;;;;;;6.85;1.65;;;21.30;99.90;;;;;;5091649;28;20043;-70
2022/06/12 04:51:19;;;;;;;8.25;1.52;;;22.00;99.90;;;;;;5106296;27;20045;-70
2022/06/12 04:53:46;;;;;;;5.35;1.30;;;22.60;99.90;;;;;;5057354;28;20050;-70
2022/06/12 04:56:15;;;;;;;7.45;2.17;;;23.10;99.90;;;;;;5072479;28;20226;-70
2022/06/12 04:58:41;;;;;;;6.43;1.33;;;23.70;99.90;;;;;;5090944;28;20036;-70
2022/06/12 05:01:08;;;;;;;6.07;1.88;;;24.20;99.90;;;;;;5080282;28;20036;-70
2022/06/12 05:03:34;;;;;;;7.72;1.45;;;24.70;99.90;;;;;;5092839;28;20518;-70
2022/06/12 05:05:59;;;;;;;7.47;1.50;;;25.10;99.90;;;;;;5091173;28;20044;-70
2022/06/12 05:08:25;;;;;;;9.13;1.90;;;25.60;99.90;;;;;;5093420;28;20493;-70
2022/06/12 05:10:51;;;;;;;9.25;2.53;;;25.50;99.90;;;;;;5056876;28;20051;-70
2022/06/12 05:13:17;;;;;;;7.70;1.73;;;25.50;99.90;;;;;;5090396;28;20428;-70
2022/06/12 05:15:44;;;;;;;8.48;1.98;;;25.80;99.80;;;;;;5075370;28;20044;-70
2022/06/12 05:18:12;;;;;;;9.05;2.25;;;26.30;99.50;;;;;;5109378;27;20035;-70
2022/06/12 05:20:38;;;;;;;7.07;1.60;;;26.70;99.00;;;;;;5077058;28;20055;-70
2022/06/12 05:23:05;;;;;;;6.60;1.70;;;26.80;98.50;;;;;;5090721;28;20035;-70
2022/06/12 05:25:30;;;;;;;6.57;1.65;;;26.20;98.40;;;;;;5087749;28;20379;-70
2022/06/12 05:27:57;;;;;;;6.43;2.17;;;25.70;99.10;;;;;;5078787;28;20051;-70
2022/06/12 05:30:25;;;;;;;8.23;2.00;;;24.90;99.60;;;;;;5073956;28;20090;-70
2022/06/12 05:32:53;;;;;;;8.50;2.00;;;24.30;99.90;;;;;;5075960;28;20040;-70
2022/06/12 05:35:20;;;;;;;7.43;1.92;;;23.90;99.90;;;;;;5075314;28;20047;-70
2022/06/12 05:37:46;;;;;;;11.50;1.90;;;23.50;99.90;;;;;;5097331;28;20031;-70
2022/06/12 05:40:17;;;;;;;6.00;1.80;;;23.20;99.90;;;;;;5073254;28;20038;-70
2022/06/12 05:42:42;;;;;;;7.43;2.05;;;23.00;99.90;;;;;;5093318;28;20055;-70
2022/06/12 05:45:12;;;;;;;9.05;2.53;;;22.70;99.90;;;;;;5091650;28;21595;-69
2022/06/12 05:47:51;;;;;;;10.50;2.83;;;22.70;99.90;;;;;;5105735;27;20059;-70
2022/06/12 05:50:19;;;;;;;10.00;2.28;;;22.60;99.90;;;;;;5111399;27;20035;-70
2022/06/12 05:52:45;;;;;;;5.63;2.08;;;22.40;99.90;;;;;;5091172;28;20040;-70
2022/06/12 05:55:12;;;;;;;8.95;2.22;;;22.00;99.90;;;;;;5064514;28;20039;-70
2022/06/12 05:57:38;;;;;;;7.72;1.90;;;21.70;99.90;;;;;;5074271;28;20039;-70
2022/06/12 06:00:08;;;;;;;10.52;2.60;;;21.50;99.90;;;;;;5075931;28;20103;-70
2022/06/12 06:02:34;;;;;;;9.23;2.08;;;21.60;99.90;;;;;;5107030;27;20039;-70
2022/06/12 06:05:00;;;;;;;9.68;2.35;;;21.70;99.90;;;;;;5102389;27;20040;-70
2022/06/12 06:07:26;;;;;;;11.50;2.72;;;21.80;99.90;;;;;;5096733;28;20054;-70
2022/06/12 06:09:52;;;;;;;6.68;2.15;;;22.00;99.90;;;;;;5079444;28;20498;-70
2022/06/12 06:12:18;;;;;;;11.10;2.00;;;22.20;99.90;;;;;;5092758;28;20090;-70
2022/06/12 06:14:44;;;;;;;9.52;2.90;;;22.20;99.90;;;;;;5068711;28;20048;-69
2022/06/12 06:17:09;;;;;;;12.15;3.00;;;22.10;99.90;;;;;;5061233;28;20044;-70
2022/06/12 06:19:35;;;;;;;9.85;3.30;;;22.20;99.90;;;;;;5065724;28;20040;-69
2022/06/12 06:22:01;;;;;;;8.32;2.40;;;21.90;99.90;;;;;;5082680;28;20036;-69
2022/06/12 06:24:27;;;;;;;7.18;2.10;;;22.10;99.90;;;;;;5096850;27;20634;-69
2022/06/12 06:26:52;;;;;;;9.95;2.90;;;22.40;99.90;;;;;;5084013;28;20043;-69
2022/06/12 06:29:19;;;;;;;12.43;3.10;;;22.50;99.90;;;;;;5065465;28;20048;-69
2022/06/12 06:31:45;;;;;;;9.73;2.75;;;22.50;99.90;;;;;;5066682;28;20131;-69
2022/06/12 06:34:11;;;;;;;12.48;2.58;;;22.70;99.90;;;;;;5062388;28;20044;-69
2022/06/12 06:36:37;;;;;;;13.07;3.28;;;22.70;99.90;;;;;;5072141;28;20059;-69
2022/06/12 06:39:03;;;;;;;11.30;2.65;;;22.90;99.90;;;;;;5062904;28;20040;-69
2022/06/12 06:41:29;;;;;;;12.50;3.45;;;23.00;99.90;;;;;;5062161;28;20114;-69
2022/06/12 06:46:39;;;;;;;9.05;3.00;;;23.10;99.90;;;;;;5082281;28;20035;-70
2022/06/12 06:49:05;;;;;;;14.02;3.55;;;23.10;99.90;;;;;;5088588;28;20059;-69
2022/06/12 06:51:32;;;;;;;9.30;2.40;;;23.00;99.90;;;;;;5072095;28;20071;-69
2022/06/12 06:53:58;;;;;;;17.33;3.13;;;23.30;99.90;;;;;;5093372;28;20070;-69
2022/06/12 06:56:24;;;;;;;11.10;3.05;;;23.30;99.90;;;;;;5086055;28;20028;-69
2022/06/12 06:58:50;;;;;;;13.95;3.45;;;23.10;99.90;;;;;;5087600;28;20035;-69
2022/06/12 07:01:16;;;;;;;11.38;3.38;;;23.20;99.90;;;;;;5085218;28;20124;-69
2022/06/12 07:03:43;;;;;;;13.98;3.88;;;23.20;99.90;;;;;;5092974;28;20043;-69
2022/06/12 07:06:11;;;;;;;14.77;3.50;;;23.50;99.90;;;;;;5069979;28;20115;-69
2022/06/12 07:08:38;;;;;;;9.73;2.90;;;23.50;99.90;;;;;;5075059;28;20150;-69
2022/06/12 07:11:04;;;;;;;12.23;3.05;;;23.60;99.90;;;;;;5090093;28;20036;-70
2022/06/12 07:13:30;;;;;;;18.27;4.65;;;23.60;99.90;;;;;;5093272;28;20031;-69
2022/06/12 07:15:55;;;;;;;11.57;2.83;;;23.50;99.90;;;;;;5091939;28;20036;-69
2022/06/12 07:18:22;;;;;;;16.40;3.90;;;23.80;99.90;;;;;;5109592;27;20046;-69
2022/06/12 07:20:52;;;;;;;14.60;3.60;;;23.80;99.90;;;;;;5092397;28;20040;-69
2022/06/12 07:23:20;;;;;;;13.43;3.92;;;23.80;99.90;;;;;;5091551;28;20130;-69
2022/06/12 07:25:57;;;;;;;17.30;3.67;;;23.90;99.90;;;;;;5093343;28;20036;-69
2022/06/12 07:28:24;;;;;;;11.45;3.30;;;23.90;99.90;;;;;;5078569;28;20032;-69
2022/06/12 07:30:51;;;;;;;13.38;3.80;;;24.00;99.90;;;;;;5100351;28;20034;-69
2022/06/12 07:33:17;;;;;;;9.63;3.30;;;24.00;99.90;;;;;;5075999;28;20489;-69
2022/06/12 07:35:45;;;;;;;11.52;3.17;;;24.10;99.90;;;;;;5094867;28;20059;-69
2022/06/12 07:38:12;;;;;;;14.23;3.50;;;24.00;99.90;;;;;;5077862;28;20051;-69
2022/06/12 07:40:43;;;;;;;14.98;3.35;;;24.10;99.90;;;;;;5072071;28;20044;-69
2022/06/12 07:43:09;;;;;;;16.20;4.45;;;23.80;99.90;;;;;;5081632;28;20146;-69
2022/06/12 07:45:37;;;;;;;14.10;3.47;;;23.60;99.90;;;;;;5077512;28;20762;-69
2022/06/12 07:48:03;;;;;;;14.23;3.30;;;23.20;99.90;;;;;;5095116;28;20397;-69
2022/06/12 07:50:30;;;;;;;14.57;4.25;;;23.00;99.90;;;;;;5111068;27;20031;-69
2022/06/12 07:52:55;;;;;;;14.35;3.65;;;23.00;99.90;;;;;;5074220;28;20145;-69
2022/06/12 07:55:22;;;;;;;13.15;3.75;;;23.00;99.90;;;;;;5088138;28;20042;-69
2022/06/12 07:57:48;;;;;;;10.65;3.35;;;23.20;99.90;;;;;;5093317;28;20503;-69
2022/06/12 08:00:15;;;;;;;13.60;3.42;;;23.20;99.90;;;;;;5096348;28;20042;-69
2022/06/12 08:02:45;;;;;;;11.85;3.20;;;23.30;99.90;;;;;;5098985;28;20028;-69
2022/06/12 08:05:11;;;;;;;12.38;4.00;;;23.20;99.90;;;;;;5092911;28;20035;-69
2022/06/12 08:07:37;;;;;;;15.95;4.03;;;23.20;99.90;;;;;;5092589;28;20459;-69
2022/06/12 08:10:04;;;;;;;14.15;3.70;;;23.10;99.90;;;;;;5088909;28;20070;-69
2022/06/12 08:12:37;;;;;;;14.35;3.83;;;23.20;99.90;;;;;;5092339;28;20035;-69
2022/06/12 08:15:04;;;;;;;20.55;4.15;;;23.50;99.90;;;;;;5071729;28;20044;-68
2022/06/12 08:17:30;;;;;;;13.88;3.67;;;23.70;99.90;;;;;;5075419;28;20565;-69
2022/06/12 08:22:39;;;;;;;16.20;3.53;;;24.10;99.90;;;;;;5079782;28;20166;-69
2022/06/12 08:25:05;;;;;;;13.13;3.25;;;23.80;99.90;;;;;;5079891;28;20127;-69
2022/06/12 08:27:32;;;;;;;10.52;3.63;;;23.50;99.90;;;;;;5091557;28;20546;-69
2022/06/12 08:29:58;;;;;;;12.60;2.97;;;23.80;99.90;;;;;;5073966;28;20119;-69
2022/06/12 08:32:23;;;;;;;11.13;3.58;;;23.90;99.90;;;;;;5079529;28;20038;-69
2022/06/12 08:34:53;;;;;;;14.35;3.13;;;24.20;99.90;;;;;;5094256;28;20047;-69
2022/06/12 08:37:24;;;;;;;14.77;3.10;;;24.40;99.90;;;;;;5094501;28;20390;-69
2022/06/12 08:39:50;;;;;;;10.50;3.58;;;24.80;99.90;;;;;;5094146;28;20050;-69
2022/06/12 08:42:24;;;;;;;15.32;3.63;;;24.60;99.90;;;;;;5115271;27;20047;-69
2022/06/12 08:44:55;;;;;;;10.88;3.50;;;24.50;99.90;;;;;;5094356;28;20039;-69
2022/06/12 08:47:32;;;;;;;12.70;3.70;;;24.80;99.90;;;;;;5094484;28;20142;-69
2022/06/12 08:50:09;;;;;;;13.00;4.05;;;24.80;99.90;;;;;;5048582;28;20143;-69
2022/06/12 08:52:46;;;;;;;11.95;3.65;;;24.40;99.90;;;;;;5111777;27;20084;-69
2022/06/12 08:55:20;;;;;;;12.38;2.80;;;24.10;99.90;;;;;;5098139;28;20051;-69
2022/06/12 08:58:48;;;;;;;18.48;4.78;;;24.20;99.90;;;;;;5079615;28;20052;-69
2022/06/12 09:01:14;;;;;;;12.90;3.40;;;24.50;99.90;;;;;;4999971;28;20042;-69
2022/06/12 09:03:45;;;;;;;14.13;5.00;;;24.70;99.90;;;;;;5091751;27;20183;-69
2022/06/12 09:06:38;;;;;;;13.90;2.97;;;25.00;99.90;;;;;;5062872;28;20067;-69
2022/06/12 09:09:08;;;;;;;10.18;3.00;;;25.00;99.90;;;;;;5066151;28;20052;-69
2022/06/12 09:11:45;;;;;;;10.88;3.25;;;25.10;99.90;;;;;;5075814;28;20123;-69
2022/06/12 09:14:48;;;;;;;9.65;2.90;;;25.20;99.90;;;;;;5087494;28;20498;-69
2022/06/12 09:17:17;;;;;;;10.65;3.15;;;25.50;99.90;;;;;;5091386;28;20113;-69
2022/06/12 09:20:01;;;;;;;17.05;3.10;;;25.50;99.90;;;;;;5076999;28;20508;-69
2022/06/12 09:22:51;;;;;;;8.55;2.22;;;25.40;99.90;;;;;;5077610;28;20136;-69
2022/06/12 09:25:38;;;;;;;9.50;2.55;;;25.50;99.90;;;;;;5109980;27;20074;-69
2022/06/12 09:28:21;;;;;;;8.32;2.25;;;25.50;99.90;;;;;;5093741;28;20139;-69
2022/06/12 09:31:11;;;;;;;10.55;2.10;;;25.60;99.90;;;;;;5077194;28;20043;-69
2022/06/12 09:34:04;;;;;;;10.48;2.00;;;25.70;99.90;;;;;;5094060;28;20550;-69
2022/06/12 09:36:51;;;;;;;12.60;2.33;;;25.70;99.90;;;;;;5078954;28;20161;-68
2022/06/12 09:39:41;;;;;;;7.25;2.22;;;25.70;99.60;;;;;;5084041;28;20069;-69
2022/06/12 09:42:20;;;;;;;8.30;2.70;;;25.70;99.80;;;;;;5077674;28;20054;-69
2022/06/12 09:44:55;;;;;;;7.22;1.67;;;25.80;99.50;;;;;;5074037;28;20048;-69
2022/06/12 09:47:41;;;;;;;6.40;2.03;;;25.70;98.70;;;;;;5073307;28;20036;-69
2022/06/12 09:50:07;;;;;;;6.38;1.83;;;25.60;98.50;;;;;;5095677;28;20046;-69
2022/06/12 09:52:56;;;;;;;7.45;1.65;;;25.80;99.30;;;;;;5092391;28;20555;-69
2022/06/12 09:55:40;;;;;;;7.88;2.60;;;25.90;98.80;;;;;;5097481;28;20032;-69
2022/06/12 09:58:12;;;;;;;9.02;1.48;;;26.10;99.60;;;;;;5095853;28;20032;-69
2022/06/12 10:00:53;;;;;;;6.53;1.52;;;26.30;98.50;;;;;;5094618;28;20092;-69
2022/06/12 10:03:44;;;;;;;5.50;1.88;;;26.30;97.40;;;;;;5073668;28;20478;-69
2022/06/12 10:06:29;;;;;;;6.95;2.28;;;26.30;98.00;;;;;;5071848;28;20562;-70
2022/06/12 10:09:01;;;;;;;5.90;1.70;;;26.30;98.40;;;;;;5087959;28;20047;-69
2022/06/12 10:11:38;;;;;;;7.97;2.28;;;26.10;98.80;;;;;;5067852;28;20044;-69
2022/06/12 10:14:20;;;;;;;4.22;1.33;;;25.70;98.60;;;;;;5072028;28;20048;-69
2022/06/12 10:16:53;;;;;;;6.63;1.30;;;25.50;99.30;;;;;;5071757;28;20755;-69
2022/06/12 10:19:43;;;;;;;5.55;1.20;;;24.90;99.10;;;;;;5073058;28;20044;-69
2022/06/12 10:22:37;;;;;;;8.57;1.65;;;24.40;98.40;;;;;;5091920;28;20035;-69
2022/06/12 10:25:05;;;;;;;4.45;1.13;;;24.10;99.10;;;;;;5073070;28;20087;-69
2022/06/12 10:27:51;;;;;;;5.43;1.15;;;23.90;99.10;;;;;;5076537;28;20077;-69
2022/06/12 10:30:42;;;;;;;5.40;1.30;;;24.00;97.50;;;;;;5096991;28;20036;-69
2022/06/12 10:33:31;;;;;;;5.28;1.25;;;24.30;99.50;;;;;;5074194;28;20043;-69
2022/06/12 10:36:00;;;;;;;6.60;1.20;;;24.30;98.60;;;;;;5075969;28;20119;-69
2022/06/12 10:38:31;;;;;;;6.43;1.77;;;24.20;98.90;;;;;;5075866;28;20051;-69
2022/06/12 10:41:04;;;;;;;8.10;1.15;;;24.10;98.90;;;;;;5074403;28;20040;-69
2022/06/12 10:43:43;;;;;;;6.63;1.08;;;24.10;98.90;;;;;;5090604;28;20051;-69
2022/06/12 10:46:16;;;;;;;6.35;2.08;;;23.80;97.70;;;;;;5072649;28;20046;-69
2022/06/12 10:48:53;;;;;;;6.78;1.50;;;23.90;97.20;;;;;;5079185;28;20082;-70
2022/06/12 10:51:36;;;;;;;4.88;1.50;;;24.10;98.20;;;;;;5057761;28;20044;-69
2022/06/12 10:54:22;;;;;;;3.58;0.80;;;24.40;98.20;;;;;;5073663;28;20044;-69
2022/06/12 10:57:03;;;;;;;10.52;3.47;;;24.60;97.90;;;;;;5091600;28;20107;-69
2022/06/12 10:59:44;;;;;;;7.22;1.60;;;24.80;96.50;;;;;;5078762;28;20071;-68
2022/06/12 11:02:16;;;;;;;11.23;4.57;;;24.70;97.00;;;;;;5097632;28;20465;-69
2022/06/12 11:05:11;;;;;;;13.75;2.97;;;24.80;96.60;;;;;;5084053;28;20054;-69
2022/06/12 11:07:50;;;;;;;13.80;5.43;;;24.90;96.60;;;;;;5090568;28;20475;-69
2022/06/12 11:10:41;;;;;;;6.57;1.67;;;24.80;96.10;;;;;;5074236;28;20129;-69
2022/06/12 11:13:46;;;;;;;5.85;1.38;;;24.80;97.10;;;;;;5073231;28;20079;-69
2022/06/12 11:16:19;;;;;;;4.82;1.38;;;24.90;94.60;;;;;;5102955;28;20036;-69
2022/06/12 11:19:06;;;;;;;4.00;1.10;;;25.00;97.30;;;;;;5090529;28;20040;-69
2022/06/12 11:21:54;;;;;;;5.07;1.70;;;24.90;94.20;;;;;;5092597;28;20032;-69
2022/06/12 11:24:24;;;;;;;5.97;1.38;;;24.60;96.60;;;;;;5093808;28;20040;-69
2022/06/12 11:27:02;;;;;;;7.45;1.33;;;24.40;96.50;;;;;;5092522;28;20108;-70
2022/06/12 11:29:46;;;;;;;7.70;1.98;;;24.60;97.20;;;;;;5072489;28;20070;-69
2022/06/12 11:32:25;;;;;;;5.85;1.50;;;24.80;95.90;;;;;;5083460;28;20039;-69
2022/06/12 11:35:32;;;;;;;4.82;1.42;;;24.60;96.10;;;;;;5085817;28;20049;-70
2022/06/12 11:38:27;;;;;;;8.00;0.90;;;24.50;96.70;;;;;;5052205;28;20048;-69
2022/06/12 11:41:06;;;;;;;4.53;1.33;;;24.30;96.00;;;;;;5105790;28;20040;-70
2022/06/12 11:43:40;;;;;;;5.35;1.33;;;24.20;97.30;;;;;;5103537;28;20513;-69
2022/06/12 11:46:18;;;;;;;6.13;1.25;;;24.30;97.60;;;;;;5075266;28;20051;-69
2022/06/12 11:49:42;;;;;;;10.32;1.33;;;24.40;97.70;;;;;;5068578;28;20183;-69
2022/06/12 11:52:20;;;;;;;7.15;1.67;;;24.80;97.90;;;;;;4994292;28;20404;-69
2022/06/12 11:55:00;;;;;;;3.70;1.38;;;24.90;97.40;;;;;;4994439;28;20516;-70
2022/06/12 11:57:49;;;;;;;6.72;1.67;;;24.80;98.20;;;;;;5054288;28;20046;-70
2022/06/12 12:00:18;;;;;;;7.63;1.30;;;24.40;96.70;;;;;;5093032;28;20505;-69
2022/06/12 12:02:44;;;;;;;7.10;2.08;;;24.10;97.90;;;;;;5094267;28;20132;-70
2022/06/12 12:05:48;;;;;;;10.20;1.75;;;23.80;97.90;;;;;;5077863;28;20427;-69
2022/06/12 12:08:44;;;;;;;5.82;1.77;;;23.80;98.80;;;;;;5051419;28;20123;-69
2022/06/12 12:11:28;;;;;;;8.77;1.55;;;23.90;99.10;;;;;;5098028;28;20035;-69
2022/06/12 12:13:58;;;;;;;5.03;1.42;;;23.80;98.70;;;;;;5072204;28;20173;-69
2022/06/12 12:16:44;;;;;;;6.88;2.03;;;23.60;99.00;;;;;;5100033;28;20039;-70
2022/06/12 12:19:28;;;;;;;9.00;2.40;;;23.90;99.90;;;;;;5094643;28;20573;-69
2022/06/12 12:22:15;;;;;;;5.90;1.75;;;24.10;98.00;;;;;;5110057;27;20040;-69
2022/06/12 12:24:53;;;;;;;8.68;1.80;;;24.00;98.40;;;;;;5076944;28;20044;-69
2022/06/12 12:27:31;;;;;;;6.78;1.23;;;23.50;96.70;;;;;;5108330;27;20036;-69
2022/06/12 12:29:58;;;;;;;7.18;2.65;;;23.20;98.20;;;;;;5076375;28;20136;-69
2022/06/12 12:32:24;;;;;;;9.10;1.52;;;23.10;99.00;;;;;;5083195;28;20097;-69
2022/06/12 12:34:54;;;;;;;7.07;1.65;;;23.00;99.90;;;;;;5096688;28;20039;-69
2022/06/12 12:43:01;;;;;;;8.88;1.58;;;22.90;99.90;;;;;;5078348;28;20036;-69
2022/06/12 12:45:32;;;;;;;7.85;1.65;;;22.90;99.80;;;;;;5094478;28;20032;-70
2022/06/12 12:48:03;;;;;;;5.18;1.70;;;22.80;99.90;;;;;;5082779;28;20042;-69
2022/06/12 12:50:29;;;;;;;6.18;1.67;;;22.80;99.90;;;;;;5065018;28;20036;-70
2022/06/12 12:52:57;;;;;;;5.10;1.65;;;22.70;99.90;;;;;;5096565;28;20503;-69
2022/06/12 12:55:30;;;;;;;7.80;1.85;;;22.80;99.90;;;;;;5093136;28;20036;-69
2022/06/12 12:58:13;;;;;;;6.00;1.88;;;22.70;99.90;;;;;;5109182;27;20102;-69
2022/06/12 13:00:39;;;;;;;8.45;1.95;;;22.50;99.90;;;;;;5075241;28;20057;-69
2022/06/12 13:03:50;;;;;;;5.63;2.10;;;22.40;99.90;;;;;;5080984;28;20476;-69
2022/06/12 13:06:27;;;;;;;7.40;1.92;;;22.40;99.90;;;;;;4968159;28;20082;-70
2022/06/12 13:09:14;;;;;;;7.65;1.85;;;22.30;99.90;;;;;;4952875;28;20149;-69
2022/06/12 13:11:52;;;;;;;10.35;1.55;;;22.20;99.90;;;;;;5039171;28;20052;-69
2022/06/12 13:14:29;;;;;;;5.15;1.60;;;22.30;99.90;;;;;;5078355;28;20119;-69
2022/06/12 13:17:09;;;;;;;4.47;1.58;;;22.30;99.90;;;;;;5076067;28;20494;-69
2022/06/12 13:20:01;;;;;;;5.22;1.80;;;22.40;99.90;;;;;;5072693;28;20159;-70
2022/06/12 13:22:42;;;;;;;13.85;2.13;;;22.70;99.90;;;;;;5095813;28;20596;-70
2022/06/12 13:25:17;;;;;;;5.68;1.98;;;22.90;99.90;;;;;;5090344;28;20032;-69
2022/06/12 13:28:02;;;;;;;7.65;2.08;;;22.90;99.90;;;;;;5108424;27;20130;-70
2022/06/12 13:30:34;;;;;;;4.95;1.83;;;22.90;99.90;;;;;;5078903;28;20121;-69
2022/06/12 13:33:18;;;;;;;5.55;1.30;;;23.00;99.90;;;;;;5079193;28;20055;-69
2022/06/12 13:35:47;;;;;;;7.68;1.33;;;22.90;99.90;;;;;;5091116;28;20378;-72
2022/06/12 13:38:36;;;;;;;9.05;1.40;;;22.80;99.90;;;;;;5091119;28;20113;-69